Estacion de Cartama, Spain
Current Conditions -  °F | °C
As of 4:30 AM on Friday 19 Dec 2014 (Local Time) from LEMG Reporting Station
Clear Clear  
Wind Chill: 42°   Ceiling: Unl
Heat Index: 46°   Visibility: 6mi
Dew Point: 43°   Wind: 8mph
Humidity: 87%   Direction: 290°WNW
Pressure: 30.36"   Gusts: NA
Location:  36.73°N, 4.62°W
Report Text: LEMG 190330Z 29007KT CAVOK 08/06 Q1028 NOSIG
Loading
Personal Weather Stations






























Interactive Weather Map New forecast layout! Learn more

10-Day Weather Forecast

Advertisements
Track Severe Weather on mobile